sensor_id;sensor_type;location;lat;lon;timestamp;pressure;altitude;pressure_sealevel;temperature;humidity
42067;BME280;27734;47.028;28.820;2023-05-12T00:00:57;101283.67;;;10.29;58.58
42067;BME280;27734;47.028;28.820;2023-05-12T00:03:28;101287.87;;;10.25;58.39
42067;BME280;27734;47.028;28.820;2023-05-12T00:06:00;101283.37;;;10.23;58.94
42067;BME280;27734;47.028;28.820;2023-05-12T00:08:33;101287.58;;;10.19;58.68
42067;BME280;27734;47.028;28.820;2023-05-12T00:11:04;101290.93;;;10.17;58.74
42067;BME280;27734;47.028;28.820;2023-05-12T00:13:35;101290.77;;;10.14;59.18
42067;BME280;27734;47.028;28.820;2023-05-12T00:16:07;101289.66;;;10.08;59.11
42067;BME280;27734;47.028;28.820;2023-05-12T00:18:39;101284.33;;;10.07;59.08
42067;BME280;27734;47.028;28.820;2023-05-12T00:21:10;101289.58;;;10.07;59.46
42067;BME280;27734;47.028;28.820;2023-05-12T00:23:41;101287.69;;;10.04;58.99
42067;BME280;27734;47.028;28.820;2023-05-12T00:26:13;101294.52;;;10.01;59.65
42067;BME280;27734;47.028;28.820;2023-05-12T00:28:45;101285.60;;;9.97;59.78
42067;BME280;27734;47.028;28.820;2023-05-12T00:31:17;101280.20;;;9.94;59.30
42067;BME280;27734;47.028;28.820;2023-05-12T00:33:48;101289.69;;;9.92;59.32
42067;BME280;27734;47.028;28.820;2023-05-12T00:36:20;101287.75;;;9.88;59.95
42067;BME280;27734;47.028;28.820;2023-05-12T00:38:51;101291.91;;;9.84;59.61
42067;BME280;27734;47.028;28.820;2023-05-12T00:41:23;101284.66;;;9.79;60.22
42067;BME280;27734;47.028;28.820;2023-05-12T00:43:54;101284.50;;;9.76;59.96
42067;BME280;27734;47.028;28.820;2023-05-12T00:46:26;101285.31;;;9.75;59.89
42067;BME280;27734;47.028;28.820;2023-05-12T00:48:57;101285.16;;;9.71;60.42
42067;BME280;27734;47.028;28.820;2023-05-12T00:51:29;101291.05;;;9.67;60.56
42067;BME280;27734;47.028;28.820;2023-05-12T00:54:01;101289.19;;;9.65;60.44
42067;BME280;27734;47.028;28.820;2023-05-12T00:56:33;101282.78;;;9.60;60.77
42067;BME280;27734;47.028;28.820;2023-05-12T00:59:09;101278.30;;;9.57;60.85
42067;BME280;27734;47.028;28.820;2023-05-12T01:01:41;101282.38;;;9.52;60.47
42067;BME280;27734;47.028;28.820;2023-05-12T01:04:13;101285.00;;;9.52;60.58
42067;BME280;27734;47.028;28.820;2023-05-12T01:06:51;101281.25;;;9.47;61.10
42067;BME280;27734;47.028;28.820;2023-05-12T01:09:24;101284.55;;;9.43;60.83
42067;BME280;27734;47.028;28.820;2023-05-12T01:11:55;101286.92;;;9.38;60.90
42067;BME280;27734;47.028;28.820;2023-05-12T01:14:26;101285.84;;;9.34;60.99
42067;BME280;27734;47.028;28.820;2023-05-12T01:17:00;101287.41;;;9.31;61.36
42067;BME280;27734;47.028;28.820;2023-05-12T01:19:42;101287.23;;;9.28;60.83
42067;BME280;27734;47.028;28.820;2023-05-12T01:22:15;101285.43;;;9.27;60.86
42067;BME280;27734;47.028;28.820;2023-05-12T01:24:51;101281.84;;;9.25;61.05
42067;BME280;27734;47.028;28.820;2023-05-12T01:27:25;101299.20;;;9.23;61.13
42067;BME280;27734;47.028;28.820;2023-05-12T01:29:58;101286.58;;;9.15;61.18
42067;BME280;27734;47.028;28.820;2023-05-12T01:32:30;101286.33;;;9.11;61.84
42067;BME280;27734;47.028;28.820;2023-05-12T01:35:02;101291.31;;;9.06;61.44
42067;BME280;27734;47.028;28.820;2023-05-12T01:37:35;101287.98;;;9.09;62.01
42067;BME280;27734;47.028;28.820;2023-05-12T01:40:09;101285.44;;;9.10;61.76
42067;BME280;27734;47.028;28.820;2023-05-12T01:42:42;101296.64;;;9.08;61.55
42067;BME280;27734;47.028;28.820;2023-05-12T01:45:15;101289.25;;;9.00;61.84
42067;BME280;27734;47.028;28.820;2023-05-12T01:47:46;101285.41;;;8.94;62.14
42067;BME280;27734;47.028;28.820;2023-05-12T01:50:18;101291.86;;;8.84;62.10
42067;BME280;27734;47.028;28.820;2023-05-12T01:52:50;101294.59;;;8.71;62.05
42067;BME280;27734;47.028;28.820;2023-05-12T01:55:22;101287.96;;;8.61;62.58
42067;BME280;27734;47.028;28.820;2023-05-12T01:57:57;101289.25;;;8.53;63.01
42067;BME280;27734;47.028;28.820;2023-05-12T02:00:28;101291.61;;;8.48;62.84
42067;BME280;27734;47.028;28.820;2023-05-12T02:03:00;101285.99;;;8.42;62.66
42067;BME280;27734;47.028;28.820;2023-05-12T02:05:31;101287.63;;;8.40;63.37
42067;BME280;27734;47.028;28.820;2023-05-12T02:08:03;101283.83;;;8.35;63.01
42067;BME280;27734;47.028;28.820;2023-05-12T02:10:34;101288.34;;;8.37;62.89
42067;BME280;27734;47.028;28.820;2023-05-12T02:13:05;101292.11;;;8.42;62.96
42067;BME280;27734;47.028;28.820;2023-05-12T02:15:37;101296.66;;;8.45;63.59
42067;BME280;27734;47.028;28.820;2023-05-12T02:18:08;101295.62;;;8.43;63.53
42067;BME280;27734;47.028;28.820;2023-05-12T02:20:42;101301.89;;;8.45;63.68
42067;BME280;27734;47.028;28.820;2023-05-12T02:23:13;101300.17;;;8.45;63.81
42067;BME280;27734;47.028;28.820;2023-05-12T02:25:44;101299.28;;;8.45;63.87
42067;BME280;27734;47.028;28.820;2023-05-12T02:28:16;101297.55;;;8.45;63.63
42067;BME280;27734;47.028;28.820;2023-05-12T02:30:48;101304.21;;;8.40;63.52
42067;BME280;27734;47.028;28.820;2023-05-12T02:33:22;101302.97;;;8.34;64.07
42067;BME280;27734;47.028;28.820;2023-05-12T02:35:53;101315.21;;;8.35;64.35
42067;BME280;27734;47.028;28.820;2023-05-12T02:38:25;101301.33;;;8.36;64.17
42067;BME280;27734;47.028;28.820;2023-05-12T02:40:56;101294.47;;;8.38;64.43
42067;BME280;27734;47.028;28.820;2023-05-12T02:43:27;101301.69;;;8.42;64.15
42067;BME280;27734;47.028;28.820;2023-05-12T02:45:59;101299.19;;;8.43;64.15
42067;BME280;27734;47.028;28.820;2023-05-12T02:48:30;101295.73;;;8.44;64.89
42067;BME280;27734;47.028;28.820;2023-05-12T02:51:01;101297.64;;;8.47;64.70
42067;BME280;27734;47.028;28.820;2023-05-12T02:53:32;101291.61;;;8.48;65.09
42067;BME280;27734;47.028;28.820;2023-05-12T02:56:04;101296.00;;;8.49;64.55
42067;BME280;27734;47.028;28.820;2023-05-12T02:58:36;101308.45;;;8.53;64.91
42067;BME280;27734;47.028;28.820;2023-05-12T03:01:07;101307.56;;;8.53;65.36
42067;BME280;27734;47.028;28.820;2023-05-12T03:03:39;101308.45;;;8.53;65.46
42067;BME280;27734;47.028;28.820;2023-05-12T03:06:10;101308.55;;;8.55;64.94
42067;BME280;27734;47.028;28.820;2023-05-12T03:08:41;101303.40;;;8.56;65.63
42067;BME280;27734;47.028;28.820;2023-05-12T03:11:13;101307.83;;;8.57;65.57
42067;BME280;27734;47.028;28.820;2023-05-12T03:13:44;101313.06;;;8.57;65.84
42067;BME280;27734;47.028;28.820;2023-05-12T03:16:15;101312.39;;;8.61;65.89
42067;BME280;27734;47.028;28.820;2023-05-12T03:18:47;101316.91;;;8.64;65.63
42067;BME280;27734;47.028;28.820;2023-05-12T03:21:19;101305.06;;;8.71;65.61
42067;BME280;27734;47.028;28.820;2023-05-12T03:23:50;101312.38;;;8.76;65.53
42067;BME280;27734;47.028;28.820;2023-05-12T03:26:21;101318.66;;;8.80;65.84
42067;BME280;27734;47.028;28.820;2023-05-12T03:28:53;101318.20;;;8.87;66.14
42067;BME280;27734;47.028;28.820;2023-05-12T03:31:24;101324.76;;;8.95;66.30
42067;BME280;27734;47.028;28.820;2023-05-12T03:33:55;101326.73;;;8.99;66.32
42067;BME280;27734;47.028;28.820;2023-05-12T03:36:27;101330.97;;;8.97;65.79
42067;BME280;27734;47.028;28.820;2023-05-12T03:38:59;101321.33;;;8.96;66.12
42067;BME280;27734;47.028;28.820;2023-05-12T03:41:31;101324.67;;;8.94;66.20
42067;BME280;27734;47.028;28.820;2023-05-12T03:44:03;101334.25;;;8.93;66.87
42067;BME280;27734;47.028;28.820;2023-05-12T03:46:34;101327.20;;;8.92;66.79
42067;BME280;27734;47.028;28.820;2023-05-12T03:49:06;101329.82;;;8.92;66.38
42067;BME280;27734;47.028;28.820;2023-05-12T03:51:38;101330.83;;;8.94;66.56
42067;BME280;27734;47.028;28.820;2023-05-12T03:54:10;101331.14;;;9.00;66.74
42067;BME280;27734;47.028;28.820;2023-05-12T03:56:41;101335.02;;;9.07;66.82
42067;BME280;27734;47.028;28.820;2023-05-12T03:59:12;101329.36;;;9.16;66.82
42067;BME280;27734;47.028;28.820;2023-05-12T04:01:43;101335.11;;;9.25;66.67
42067;BME280;27734;47.028;28.820;2023-05-12T04:04:14;101328.50;;;9.32;66.81
42067;BME280;27734;47.028;28.820;2023-05-12T04:06:49;101335.94;;;9.41;67.24
42067;BME280;27734;47.028;28.820;2023-05-12T04:09:21;101334.41;;;9.44;67.26
42067;BME280;27734;47.028;28.820;2023-05-12T04:11:53;101332.84;;;9.48;67.12
42067;BME280;27734;47.028;28.820;2023-05-12T04:14:25;101334.78;;;9.52;67.42
42067;BME280;27734;47.028;28.820;2023-05-12T04:16:56;101339.46;;;9.58;67.83
42067;BME280;27734;47.028;28.820;2023-05-12T04:19:28;101343.13;;;9.61;67.90
42067;BME280;27734;47.028;28.820;2023-05-12T04:21:59;101344.22;;;9.65;67.90
42067;BME280;27734;47.028;28.820;2023-05-12T04:24:30;101327.73;;;9.67;68.15
42067;BME280;27734;47.028;28.820;2023-05-12T04:27:01;101337.65;;;9.73;67.33
42067;BME280;27734;47.028;28.820;2023-05-12T04:29:33;101347.73;;;9.82;68.15
42067;BME280;27734;47.028;28.820;2023-05-12T04:32:05;101346.23;;;9.87;67.59
42067;BME280;27734;47.028;28.820;2023-05-12T04:34:37;101344.66;;;9.90;68.15
42067;BME280;27734;47.028;28.820;2023-05-12T04:37:08;101347.60;;;9.97;67.95
42067;BME280;27734;47.028;28.820;2023-05-12T04:39:39;101351.52;;;10.05;67.94
42067;BME280;27734;47.028;28.820;2023-05-12T04:42:11;101349.36;;;10.14;67.77
42067;BME280;27734;47.028;28.820;2023-05-12T04:44:42;101354.19;;;10.23;67.98
42067;BME280;27734;47.028;28.820;2023-05-12T04:47:15;101357.28;;;10.32;67.73
42067;BME280;27734;47.028;28.820;2023-05-12T04:49:46;101355.08;;;10.40;67.93
42067;BME280;27734;47.028;28.820;2023-05-12T04:52:18;101345.92;;;10.50;67.94
42067;BME280;27734;47.028;28.820;2023-05-12T04:54:50;101349.82;;;10.58;67.92
42067;BME280;27734;47.028;28.820;2023-05-12T04:57:21;101347.72;;;10.69;68.22
42067;BME280;27734;47.028;28.820;2023-05-12T04:59:53;101346.47;;;10.78;67.68
42067;BME280;27734;47.028;28.820;2023-05-12T05:02:35;101347.88;;;10.90;68.34
42067;BME280;27734;47.028;28.820;2023-05-12T05:05:07;101344.73;;;10.97;67.90
42067;BME280;27734;47.028;28.820;2023-05-12T05:07:39;101339.84;;;11.05;67.81
42067;BME280;27734;47.028;28.820;2023-05-12T05:10:11;101348.12;;;11.14;67.77
42067;BME280;27734;47.028;28.820;2023-05-12T05:12:45;101344.22;;;11.24;67.93
42067;BME280;27734;47.028;28.820;2023-05-12T05:15:17;101343.94;;;11.37;67.51
42067;BME280;27734;47.028;28.820;2023-05-12T05:17:48;101344.42;;;11.48;67.71
42067;BME280;27734;47.028;28.820;2023-05-12T05:20:20;101353.58;;;11.56;67.46
42067;BME280;27734;47.028;28.820;2023-05-12T05:22:51;101352.19;;;11.64;67.62
42067;BME280;27734;47.028;28.820;2023-05-12T05:25:23;101343.11;;;11.77;67.56
42067;BME280;27734;47.028;28.820;2023-05-12T05:27:55;101352.30;;;11.87;67.42
42067;BME280;27734;47.028;28.820;2023-05-12T05:30:27;101352.73;;;11.96;67.24
42067;BME280;27734;47.028;28.820;2023-05-12T05:33:10;101358.47;;;12.07;66.70
42067;BME280;27734;47.028;28.820;2023-05-12T05:35:45;101355.47;;;12.19;67.07
42067;BME280;27734;47.028;28.820;2023-05-12T05:38:17;101357.70;;;12.31;67.12
42067;BME280;27734;47.028;28.820;2023-05-12T05:40:49;101354.77;;;12.44;67.17
42067;BME280;27734;47.028;28.820;2023-05-12T05:43:20;101349.19;;;12.57;66.81
42067;BME280;27734;47.028;28.820;2023-05-12T05:45:53;101352.36;;;12.71;66.69
42067;BME280;27734;47.028;28.820;2023-05-12T05:48:30;101358.06;;;12.82;66.63
42067;BME280;27734;47.028;28.820;2023-05-12T05:51:01;101354.97;;;12.92;66.22
42067;BME280;27734;47.028;28.820;2023-05-12T05:53:33;101344.86;;;13.03;65.84
42067;BME280;27734;47.028;28.820;2023-05-12T05:56:09;101347.91;;;13.14;65.97
42067;BME280;27734;47.028;28.820;2023-05-12T05:58:41;101346.64;;;13.27;65.71
42067;BME280;27734;47.028;28.820;2023-05-12T06:01:13;101355.94;;;13.40;65.46
42067;BME280;27734;47.028;28.820;2023-05-12T06:03:44;101343.27;;;13.54;65.39
42067;BME280;27734;47.028;28.820;2023-05-12T06:06:19;101343.78;;;13.68;66.09
42067;BME280;27734;47.028;28.820;2023-05-12T06:08:48;101345.11;;;13.80;64.36
42067;BME280;27734;47.028;28.820;2023-05-12T06:11:20;101349.06;;;13.92;65.25
42067;BME280;27734;47.028;28.820;2023-05-12T06:13:56;101345.09;;;14.05;64.49
42067;BME280;27734;47.028;28.820;2023-05-12T06:16:29;101345.47;;;14.15;64.89
42067;BME280;27734;47.028;28.820;2023-05-12T06:19:04;101352.80;;;14.24;64.97
42067;BME280;27734;47.028;28.820;2023-05-12T06:21:37;101353.16;;;14.35;63.58
42067;BME280;27734;47.028;28.820;2023-05-12T06:24:14;101344.61;;;14.42;63.99
42067;BME280;27734;47.028;28.820;2023-05-12T06:26:50;101338.95;;;14.57;64.13
42067;BME280;27734;47.028;28.820;2023-05-12T06:29:24;101344.77;;;14.72;64.11
42067;BME280;27734;47.028;28.820;2023-05-12T06:31:59;101340.72;;;14.84;64.00
42067;BME280;27734;47.028;28.820;2023-05-12T06:35:02;101333.08;;;14.93;63.83
42067;BME280;27734;47.028;28.820;2023-05-12T06:37:37;101332.78;;;15.13;63.37
42067;BME280;27734;47.028;28.820;2023-05-12T06:40:14;101333.24;;;15.28;63.92
42067;BME280;27734;47.028;28.820;2023-05-12T06:42:45;101338.05;;;15.41;63.11
42067;BME280;27734;47.028;28.820;2023-05-12T06:45:22;101334.05;;;15.56;62.53
42067;BME280;27734;47.028;28.820;2023-05-12T06:47:54;101333.52;;;15.68;62.15
42067;BME280;27734;47.028;28.820;2023-05-12T06:50:29;101326.92;;;15.84;61.09
42067;BME280;27734;47.028;28.820;2023-05-12T06:53:02;101339.74;;;16.02;61.24
42067;BME280;27734;47.028;28.820;2023-05-12T06:55:37;101333.97;;;16.16;61.46
42067;BME280;27734;47.028;28.820;2023-05-12T06:58:12;101349.26;;;16.27;57.82
42067;BME280;27734;47.028;28.820;2023-05-12T07:00:44;101345.81;;;16.31;58.33
42067;BME280;27734;47.028;28.820;2023-05-12T07:03:16;101340.91;;;16.46;57.05
42067;BME280;27734;47.028;28.820;2023-05-12T07:05:50;101340.28;;;16.57;56.55
42067;BME280;27734;47.028;28.820;2023-05-12T07:08:21;101339.92;;;16.79;56.71
42067;BME280;27734;47.028;28.820;2023-05-12T07:10:54;101329.68;;;16.93;56.59
42067;BME280;27734;47.028;28.820;2023-05-12T07:13:28;101341.52;;;17.09;56.54
42067;BME280;27734;47.028;28.820;2023-05-12T07:16:02;101328.86;;;17.37;56.04
42067;BME280;27734;47.028;28.820;2023-05-12T07:18:35;101331.02;;;17.55;55.01
42067;BME280;27734;47.028;28.820;2023-05-12T07:21:07;101331.20;;;17.64;53.92
42067;BME280;27734;47.028;28.820;2023-05-12T07:23:39;101330.47;;;17.73;53.18
42067;BME280;27734;47.028;28.820;2023-05-12T07:26:11;101324.66;;;17.91;52.51
42067;BME280;27734;47.028;28.820;2023-05-12T07:28:42;101326.74;;;18.09;51.50
42067;BME280;27734;47.028;28.820;2023-05-12T07:31:15;101323.53;;;18.27;51.19
42067;BME280;27734;47.028;28.820;2023-05-12T07:33:49;101322.06;;;18.46;51.18
42067;BME280;27734;47.028;28.820;2023-05-12T07:36:24;101325.78;;;18.57;47.38
42067;BME280;27734;47.028;28.820;2023-05-12T07:38:59;101325.13;;;18.71;48.44
42067;BME280;27734;47.028;28.820;2023-05-12T07:41:31;101319.26;;;18.90;48.79
42067;BME280;27734;47.028;28.820;2023-05-12T07:44:02;101322.95;;;19.01;47.66
42067;BME280;27734;47.028;28.820;2023-05-12T07:46:33;101315.27;;;19.23;48.19
42067;BME280;27734;47.028;28.820;2023-05-12T07:49:08;101308.52;;;19.51;47.86
42067;BME280;27734;47.028;28.820;2023-05-12T07:51:43;101308.78;;;19.74;46.81
42067;BME280;27734;47.028;28.820;2023-05-12T07:54:16;101308.13;;;19.96;47.17
42067;BME280;27734;47.028;28.820;2023-05-12T07:56:51;101304.66;;;20.03;45.25
42067;BME280;27734;47.028;28.820;2023-05-12T07:59:23;101316.10;;;19.94;45.09
42067;BME280;27734;47.028;28.820;2023-05-12T08:01:56;101310.63;;;19.80;42.78
42067;BME280;27734;47.028;28.820;2023-05-12T08:04:30;101329.28;;;19.82;42.60
42067;BME280;27734;47.028;28.820;2023-05-12T08:07:07;101314.26;;;19.85;42.43
42067;BME280;27734;47.028;28.820;2023-05-12T08:12:30;101312.51;;;19.89;40.67
42067;BME280;27734;47.028;28.820;2023-05-12T08:15:02;101316.05;;;19.89;40.50
42067;BME280;27734;47.028;28.820;2023-05-12T08:17:40;101306.95;;;19.70;38.98
42067;BME280;27734;47.028;28.820;2023-05-12T08:20:12;101307.73;;;19.62;38.37
42067;BME280;27734;47.028;28.820;2023-05-12T08:22:47;101317.53;;;19.64;38.62
42067;BME280;27734;47.028;28.820;2023-05-12T08:25:21;101312.15;;;19.60;38.83
42067;BME280;27734;47.028;28.820;2023-05-12T08:27:53;101314.69;;;19.49;37.62
42067;BME280;27734;47.028;28.820;2023-05-12T08:30:30;101309.33;;;19.46;37.68
42067;BME280;27734;47.028;28.820;2023-05-12T08:33:02;101308.59;;;19.57;33.60
42067;BME280;27734;47.028;28.820;2023-05-12T08:35:35;101314.91;;;19.67;37.88
42067;BME280;27734;47.028;28.820;2023-05-12T08:38:07;101315.88;;;19.75;37.38
42067;BME280;27734;47.028;28.820;2023-05-12T08:40:52;101304.27;;;19.69;34.40
42067;BME280;27734;47.028;28.820;2023-05-12T08:43:36;101319.22;;;19.56;34.35
42067;BME280;27734;47.028;28.820;2023-05-12T08:46:09;101320.08;;;19.55;34.88
42067;BME280;27734;47.028;28.820;2023-05-12T08:48:41;101320.17;;;19.63;35.71
42067;BME280;27734;47.028;28.820;2023-05-12T08:51:15;101313.14;;;19.69;35.18
42067;BME280;27734;47.028;28.820;2023-05-12T08:53:50;101316.89;;;19.82;35.28
42067;BME280;27734;47.028;28.820;2023-05-12T08:56:24;101307.98;;;19.82;34.01
42067;BME280;27734;47.028;28.820;2023-05-12T08:59:01;101306.30;;;19.88;33.58
42067;BME280;27734;47.028;28.820;2023-05-12T09:01:41;101306.42;;;20.01;34.76
42067;BME280;27734;47.028;28.820;2023-05-12T09:04:13;101302.03;;;20.07;33.94
42067;BME280;27734;47.028;28.820;2023-05-12T09:06:48;101300.36;;;20.19;34.26
42067;BME280;27734;47.028;28.820;2023-05-12T09:09:23;101303.94;;;20.24;32.71
42067;BME280;27734;47.028;28.820;2023-05-12T09:12:00;101294.28;;;20.35;33.33
42067;BME280;27734;47.028;28.820;2023-05-12T09:14:41;101282.80;;;20.45;34.06
42067;BME280;27734;47.028;28.820;2023-05-12T09:17:26;101284.70;;;20.60;33.91
42067;BME280;27734;47.028;28.820;2023-05-12T09:20:27;101281.28;;;20.80;34.26
42067;BME280;27734;47.028;28.820;2023-05-12T09:23:14;101268.09;;;21.09;33.10
42067;BME280;27734;47.028;28.820;2023-05-12T09:26:00;101280.67;;;21.33;32.24
42067;BME280;27734;47.028;28.820;2023-05-12T09:28:37;101268.30;;;21.52;32.53
42067;BME280;27734;47.028;28.820;2023-05-12T09:31:25;101277.23;;;21.67;31.56
42067;BME280;27734;47.028;28.820;2023-05-12T09:34:10;101262.12;;;21.89;31.40
42067;BME280;27734;47.028;28.820;2023-05-12T09:37:00;101256.78;;;21.94;31.43
42067;BME280;27734;47.028;28.820;2023-05-12T09:39:34;101265.70;;;21.89;32.15
42067;BME280;27734;47.028;28.820;2023-05-12T09:42:12;101261.23;;;21.85;31.02
42067;BME280;27734;47.028;28.820;2023-05-12T09:44:46;101268.38;;;21.99;31.23
42067;BME280;27734;47.028;28.820;2023-05-12T09:50:18;101255.91;;;22.07;31.17
42067;BME280;27734;47.028;28.820;2023-05-12T09:52:53;101255.00;;;22.16;28.90
42067;BME280;27734;47.028;28.820;2023-05-12T09:55:37;101251.45;;;22.15;28.81
42067;BME280;27734;47.028;28.820;2023-05-12T09:58:13;101254.12;;;22.11;29.59
42067;BME280;27734;47.028;28.820;2023-05-12T10:01:01;101256.78;;;21.92;28.99
42067;BME280;27734;47.028;28.820;2023-05-12T10:03:37;101254.11;;;22.03;28.97
42067;BME280;27734;47.028;28.820;2023-05-12T10:06:21;101247.02;;;22.06;28.78
42067;BME280;27734;47.028;28.820;2023-05-12T10:09:08;101243.42;;;21.97;27.76
42067;BME280;27734;47.028;28.820;2023-05-12T10:11:45;101240.73;;;21.81;28.89
42067;BME280;27734;47.028;28.820;2023-05-12T10:14:18;101246.98;;;21.74;27.92
42067;BME280;27734;47.028;28.820;2023-05-12T10:16:56;101237.19;;;21.79;28.30
42067;BME280;27734;47.028;28.820;2023-05-12T10:19:28;101224.72;;;21.90;27.15
42067;BME280;27734;47.028;28.820;2023-05-12T10:22:02;101230.06;;;22.18;27.24
42067;BME280;27734;47.028;28.820;2023-05-12T10:24:35;101222.92;;;22.13;27.71
42067;BME280;27734;47.028;28.820;2023-05-12T10:27:06;101227.39;;;22.06;23.79
42067;BME280;27734;47.028;28.820;2023-05-12T10:29:40;101227.38;;;22.26;26.92
42067;BME280;27734;47.028;28.820;2023-05-12T10:32:13;101220.27;;;22.34;25.89
42067;BME280;27734;47.028;28.820;2023-05-12T10:34:45;101229.17;;;22.53;26.86
42067;BME280;27734;47.028;28.820;2023-05-12T10:37:22;101220.17;;;22.80;27.23
42067;BME280;27734;47.028;28.820;2023-05-12T10:40:00;101218.34;;;22.89;26.74
42067;BME280;27734;47.028;28.820;2023-05-12T10:42:46;101216.63;;;22.77;26.74
42067;BME280;27734;47.028;28.820;2023-05-12T10:48:21;101228.19;;;22.82;26.62
42067;BME280;27734;47.028;28.820;2023-05-12T10:51:12;101213.92;;;22.83;26.48
42067;BME280;27734;47.028;28.820;2023-05-12T10:53:59;101219.23;;;22.95;26.18
42067;BME280;27734;47.028;28.820;2023-05-12T10:56:44;101209.47;;;22.79;25.81
42067;BME280;27734;47.028;28.820;2023-05-12T10:59:20;101209.41;;;22.96;26.15
42067;BME280;27734;47.028;28.820;2023-05-12T11:02:00;101207.59;;;23.03;25.64
42067;BME280;27734;47.028;28.820;2023-05-12T11:04:49;101213.88;;;22.98;24.91
42067;BME280;27734;47.028;28.820;2023-05-12T11:07:36;101206.66;;;23.18;25.10
42067;BME280;27734;47.028;28.820;2023-05-12T11:10:28;101200.27;;;23.40;25.38
42067;BME280;27734;47.028;28.820;2023-05-12T11:13:23;101205.58;;;23.48;25.04
42067;BME280;27734;47.028;28.820;2023-05-12T11:16:12;101196.83;;;23.20;24.16
42067;BME280;27734;47.028;28.820;2023-05-12T11:18:44;101197.80;;;23.02;23.79
42067;BME280;27734;47.028;28.820;2023-05-12T11:21:21;101198.67;;;23.04;24.51
42067;BME280;27734;47.028;28.820;2023-05-12T11:23:59;101203.97;;;23.22;23.50
42067;BME280;27734;47.028;28.820;2023-05-12T11:26:32;101204.77;;;23.37;24.33
42067;BME280;27734;47.028;28.820;2023-05-12T11:29:05;101196.68;;;23.46;24.26
42067;BME280;27734;47.028;28.820;2023-05-12T11:31:37;101193.07;;;23.53;23.89
42067;BME280;27734;47.028;28.820;2023-05-12T11:34:09;101196.56;;;23.63;23.14
42067;BME280;27734;47.028;28.820;2023-05-12T11:36:42;101196.58;;;23.61;23.45
42067;BME280;27734;47.028;28.820;2023-05-12T11:39:22;101185.85;;;23.63;23.36
42067;BME280;27734;47.028;28.820;2023-05-12T11:42:05;101194.73;;;23.68;23.64
42067;BME280;27734;47.028;28.820;2023-05-12T11:44:47;101187.64;;;23.64;23.42
42067;BME280;27734;47.028;28.820;2023-05-12T11:47:21;101194.73;;;23.68;23.39
42067;BME280;27734;47.028;28.820;2023-05-12T11:49:53;101193.98;;;23.49;23.44
42067;BME280;27734;47.028;28.820;2023-05-12T11:52:39;101195.00;;;23.26;23.04
42067;BME280;27734;47.028;28.820;2023-05-12T11:55:31;101190.67;;;22.96;22.57
42067;BME280;27734;47.028;28.820;2023-05-12T11:58:17;101195.20;;;22.80;23.36
42067;BME280;27734;47.028;28.820;2023-05-12T12:00:52;101191.73;;;22.55;23.04
42067;BME280;27734;47.028;28.820;2023-05-12T12:03:27;101190.84;;;22.45;23.49
42067;BME280;27734;47.028;28.820;2023-05-12T12:06:03;101194.43;;;22.44;23.64
42067;BME280;27734;47.028;28.820;2023-05-12T12:08:50;101186.44;;;22.30;23.64
42067;BME280;27734;47.028;28.820;2023-05-12T12:11:23;101177.48;;;22.25;23.41
42067;BME280;27734;47.028;28.820;2023-05-12T12:13:58;101178.41;;;22.36;23.36
42067;BME280;27734;47.028;28.820;2023-05-12T12:16:32;101183.71;;;22.53;23.29
42067;BME280;27734;47.028;28.820;2023-05-12T12:19:10;101181.08;;;22.35;23.00
42067;BME280;27734;47.028;28.820;2023-05-12T12:21:45;101172.13;;;22.28;23.34
42067;BME280;27734;47.028;28.820;2023-05-12T12:24:32;101173.05;;;22.16;22.91
42067;BME280;27734;47.028;28.820;2023-05-12T12:27:14;101174.86;;;22.08;23.47
42067;BME280;27734;47.028;28.820;2023-05-12T12:29:54;101180.20;;;22.02;23.28
42067;BME280;27734;47.028;28.820;2023-05-12T12:32:36;101176.63;;;21.90;23.20
42067;BME280;27734;47.028;28.820;2023-05-12T12:35:15;101168.61;;;21.89;24.05
42067;BME280;27734;47.028;28.820;2023-05-12T12:40:49;101175.72;;;21.50;23.08
42067;BME280;27734;47.028;28.820;2023-05-12T12:43:25;101169.45;;;21.39;23.12
42067;BME280;27734;47.028;28.820;2023-05-12T12:46:14;101173.02;;;21.48;22.78
42067;BME280;27734;47.028;28.820;2023-05-12T12:48:51;101175.73;;;21.59;23.74
42067;BME280;27734;47.028;28.820;2023-05-12T12:51:33;101176.61;;;21.66;23.72
42067;BME280;27734;47.028;28.820;2023-05-12T12:54:20;101171.28;;;21.72;24.22
42067;BME280;27734;47.028;28.820;2023-05-12T12:56:52;101158.84;;;21.74;23.88
42067;BME280;27734;47.028;28.820;2023-05-12T12:59:26;101157.05;;;21.70;23.27
42067;BME280;27734;47.028;28.820;2023-05-12T13:01:59;101153.49;;;21.66;24.04
42067;BME280;27734;47.028;28.820;2023-05-12T13:04:32;101164.17;;;21.68;23.54
42067;BME280;27734;47.028;28.820;2023-05-12T13:07:03;101166.84;;;21.68;23.65
42067;BME280;27734;47.028;28.820;2023-05-12T13:09:37;101168.61;;;21.70;23.63
42067;BME280;27734;47.028;28.820;2023-05-12T13:12:18;101161.51;;;21.72;23.88
42067;BME280;27734;47.028;28.820;2023-05-12T13:14:49;101167.73;;;21.70;23.96
42067;BME280;27734;47.028;28.820;2023-05-12T13:17:22;101157.92;;;21.70;23.09
42067;BME280;27734;47.028;28.820;2023-05-12T13:19:56;101156.17;;;21.71;23.58
42067;BME280;27734;47.028;28.820;2023-05-12T13:22:28;101159.72;;;21.65;23.00
42067;BME280;27734;47.028;28.820;2023-05-12T13:25:00;101151.70;;;21.67;23.70
42067;BME280;27734;47.028;28.820;2023-05-12T13:27:36;101155.25;;;21.73;23.35
42067;BME280;27734;47.028;28.820;2023-05-12T13:30:11;101159.72;;;21.76;23.01
42067;BME280;27734;47.028;28.820;2023-05-12T13:32:44;101157.92;;;21.80;23.67